Time;durP1;ratioP1;P1;durP2;ratioP2;P2;SDS_P1;SDS_P2;PMS_P1;PMS_P2;Temp;Humidity;BMP_temperature;BMP_pressure;BME280_temperature;BME280_humidity;BME280_pressure;Samples;Min_cycle;Max_cycle;Signal;HPM_P1;HPM_P2
2021/07/18 00:01:30;;;;;;;9.70;8.70;;;;;;;21.03;65.65;98501.38;4829958;29;20042;-78
2021/07/18 00:03:56;;;;;;;15.38;8.65;;;;;;;21.00;65.66;98487.38;4860591;29;20171;-80
2021/07/18 00:06:22;;;;;;;11.23;8.45;;;;;;;20.96;65.83;98481.53;4860429;29;20140;-81
2021/07/18 00:08:47;;;;;;;11.02;7.53;;;;;;;20.93;65.72;98475.69;4829873;29;20102;-82
2021/07/18 00:11:13;;;;;;;11.68;8.07;;;;;;;20.97;65.73;98483.19;4831578;29;20113;-81
2021/07/18 00:13:39;;;;;;;11.25;8.25;;;;;;;21.03;66.26;98487.78;4831653;29;20053;-77
2021/07/18 00:16:05;;;;;;;12.82;8.32;;;;;;;21.06;65.65;98484.66;4861413;29;20061;-81
2021/07/18 00:18:31;;;;;;;11.35;8.50;;;;;;;21.06;65.67;98481.09;4829764;29;20049;-81
2021/07/18 00:20:57;;;;;;;11.23;8.43;;;;;;;21.07;65.70;98482.78;4829668;29;20072;-82
2021/07/18 00:23:23;;;;;;;11.77;9.15;;;;;;;21.03;65.68;98485.06;4861554;29;20081;-81
2021/07/18 00:25:49;;;;;;;10.82;8.25;;;;;;;21.05;65.44;98491.13;4845195;29;20144;-82
2021/07/18 00:28:14;;;;;;;14.13;7.70;;;;;;;20.98;65.52;98490.28;4861036;29;20083;-81
2021/07/18 00:30:40;;;;;;;12.38;7.30;;;;;;;20.92;65.53;98485.72;4844805;29;20140;-82
2021/07/18 00:33:06;;;;;;;8.93;7.78;;;;;;;20.92;65.55;98485.72;4844758;29;20132;-82
2021/07/18 00:35:33;;;;;;;13.38;8.30;;;;;;;20.93;65.77;98484.66;4860035;29;20045;-82
2021/07/18 00:37:59;;;;;;;18.38;8.85;;;;;;;21.00;65.50;98482.78;4844087;29;20081;-82
2021/07/18 00:40:25;;;;;;;17.27;8.90;;;;;;;21.06;65.64;98486.50;4861178;29;20532;-82
2021/07/18 00:43:04;;;;;;;13.07;8.57;;;;;;;21.08;65.61;98485.28;4860318;29;20050;-83
2021/07/18 00:45:30;;;;;;;11.55;8.85;;;;;;;21.09;65.16;98486.09;4859757;29;20106;-83
2021/07/18 00:47:55;;;;;;;15.70;9.63;;;;;;;21.24;65.19;98492.13;4859799;29;20491;-82
2021/07/18 00:50:22;;;;;;;17.23;8.93;;;;;;;21.33;64.70;98481.94;4859551;29;20462;-83
2021/07/18 00:52:47;;;;;;;10.68;8.40;;;;;;;21.45;65.08;98495.69;4829542;29;20560;-83
2021/07/18 00:55:13;;;;;;;12.95;8.80;;;;;;;21.52;64.62;98500.06;4859721;29;20041;-83
2021/07/18 00:57:42;;;;;;;19.35;9.40;;;;;;;21.50;64.56;98494.00;4844594;29;20046;-84
2021/07/18 01:00:09;;;;;;;18.95;8.80;;;;;;;21.55;64.67;98496.91;4844758;29;20050;-83
2021/07/18 01:02:35;;;;;;;14.23;8.38;;;;;;;21.61;64.33;98495.22;4844369;29;20054;-81
2021/07/18 01:05:02;;;;;;;11.05;9.00;;;;;;;21.76;63.78;98492.22;4844366;29;20090;-80
2021/07/18 01:07:28;;;;;;;13.68;9.70;;;;;;;21.71;64.03;98494.78;4828879;29;20064;-82
2021/07/18 01:09:54;;;;;;;11.40;9.68;;;;;;;21.65;64.25;98493.72;4844168;29;20054;-80
2021/07/18 01:12:20;;;;;;;17.02;9.50;;;;;;;21.68;64.38;98489.75;4844274;29;20049;-84
2021/07/18 01:14:48;;;;;;;12.27;8.90;;;;;;;21.62;64.45;98474.28;4859587;29;20102;-82
2021/07/18 01:17:15;;;;;;;14.52;8.65;;;;;;;21.83;64.09;98487.59;4859290;29;20045;-82
2021/07/18 01:19:41;;;;;;;11.32;8.85;;;;;;;22.03;63.68;98492.94;4829095;29;20050;-87
2021/07/18 01:22:07;;;;;;;13.50;8.90;;;;;;;22.06;63.46;98493.34;4843844;29;20076;-85
2021/07/18 01:24:33;;;;;;;16.17;10.93;;;;;;;22.15;63.54;98491.22;4860518;29;20458;-85
2021/07/18 01:27:02;;;;;;;14.38;9.60;;;;;;;22.21;63.22;98494.97;4859273;29;20473;-83
2021/07/18 01:29:28;;;;;;;16.52;9.68;;;;;;;22.11;63.25;98489.13;4859315;29;20053;-85
2021/07/18 01:31:55;;;;;;;14.45;9.45;;;;;;;22.15;63.33;98485.78;4829155;29;20140;-84
2021/07/18 01:34:21;;;;;;;13.50;9.93;;;;;;;22.19;63.17;98494.34;4859296;29;20061;-83
2021/07/18 01:36:47;;;;;;;18.27;10.95;;;;;;;22.07;63.28;98494.16;4859616;29;20076;-81
2021/07/18 01:39:13;;;;;;;22.27;10.65;;;;;;;22.10;63.20;98484.75;4859395;29;20049;-80
2021/07/18 01:41:40;;;;;;;13.70;9.82;;;;;;;22.19;63.31;98502.50;4843943;29;20641;-81
2021/07/18 01:44:07;;;;;;;14.02;9.48;;;;;;;22.12;63.38;98490.81;4843662;29;20049;-81
2021/07/18 01:46:33;;;;;;;16.55;9.13;;;;;;;22.15;63.11;98493.13;4829235;29;20138;-82
2021/07/18 01:48:59;;;;;;;17.25;10.65;;;;;;;22.22;63.07;98499.38;4815241;29;20046;-81
2021/07/18 01:51:25;;;;;;;13.80;10.05;;;;;;;22.26;62.59;98497.88;4848187;29;20060;-81
2021/07/18 01:53:55;;;;;;;16.08;9.98;;;;;;;22.24;62.43;98492.66;4847693;29;20053;-80
2021/07/18 01:56:21;;;;;;;14.90;9.57;;;;;;;22.29;62.73;98513.78;4832728;29;20400;-80
2021/07/18 01:58:48;;;;;;;14.98;8.07;;;;;;;22.33;62.63;98504.09;4832146;29;20069;-80
2021/07/18 02:01:17;;;;;;;18.05;7.97;;;;;;;22.48;62.28;98501.91;4832477;29;20052;-80
2021/07/18 02:03:45;;;;;;;10.82;7.95;;;;;;;22.46;61.37;98501.31;4832181;29;20049;-80
2021/07/18 02:06:13;;;;;;;11.07;6.97;;;;;;;22.35;61.54;98496.56;4848349;29;20053;-79
2021/07/18 02:08:39;;;;;;;10.45;8.13;;;;;;;22.37;61.57;98494.44;4864745;29;20338;-79
2021/07/18 02:11:05;;;;;;;12.77;8.23;;;;;;;22.34;61.42;98489.47;4862899;29;20049;-80
2021/07/18 02:13:32;;;;;;;11.57;8.40;;;;;;;22.34;61.51;98494.91;4816859;29;20065;-80
2021/07/18 02:15:59;;;;;;;13.93;9.85;;;;;;;22.29;61.38;98492.81;4847634;29;20060;-79
2021/07/18 02:18:25;;;;;;;18.95;9.77;;;;;;;22.35;61.33;98501.19;4862459;29;20057;-82
2021/07/18 02:20:53;;;;;;;15.48;9.32;;;;;;;22.35;61.67;98502.03;4847197;29;20144;-83
2021/07/18 02:23:21;;;;;;;18.77;10.13;;;;;;;22.38;61.39;98496.13;4847060;29;20041;-79
2021/07/18 02:25:47;;;;;;;17.77;10.75;;;;;;;22.33;61.39;98487.78;4861358;29;20351;-78
2021/07/18 02:28:13;;;;;;;16.25;10.38;;;;;;;22.35;61.63;98480.22;4862306;29;20053;-80
2021/07/18 02:30:39;;;;;;;19.48;10.88;;;;;;;22.41;61.07;98506.56;4862364;29;20045;-80
2021/07/18 02:33:05;;;;;;;16.95;10.93;;;;;;;22.30;61.53;98510.00;4863544;29;20153;-79
2021/07/18 02:35:31;;;;;;;18.27;11.82;;;;;;;22.32;61.40;98502.44;4863543;29;20407;-78
2021/07/18 02:37:57;;;;;;;17.95;11.07;;;;;;;22.37;61.68;98504.50;4863222;29;20101;-78
2021/07/18 02:40:23;;;;;;;15.90;11.70;;;;;;;22.41;61.55;98512.00;4816384;29;20076;-78
2021/07/18 02:42:49;;;;;;;20.67;11.32;;;;;;;22.40;61.15;98504.91;4831380;29;20049;-77
2021/07/18 02:45:16;;;;;;;24.25;10.82;;;;;;;22.40;61.24;98501.34;4846542;29;20051;-78
2021/07/18 02:47:45;;;;;;;16.45;10.27;;;;;;;22.42;61.57;98508.25;4831254;29;20395;-79
2021/07/18 02:50:11;;;;;;;15.50;10.45;;;;;;;22.51;61.38;98506.94;4847075;29;20070;-79
2021/07/18 02:52:37;;;;;;;13.15;10.70;;;;;;;22.55;61.16;98508.16;4831381;29;20050;-79
2021/07/18 02:55:07;;;;;;;25.10;11.52;;;;;;;22.66;61.09;98505.78;4846415;29;20077;-77
2021/07/18 02:57:33;;;;;;;14.20;10.05;;;;;;;22.68;60.83;98500.94;4861432;29;20042;-78
2021/07/18 02:59:59;;;;;;;14.52;9.68;;;;;;;22.66;61.01;98494.88;4831040;29;20053;-78
2021/07/18 03:02:25;;;;;;;24.55;12.13;;;;;;;22.85;60.90;98509.41;4861042;29;20046;-78
2021/07/18 03:04:51;;;;;;;18.08;10.40;;;;;;;23.05;60.52;98501.91;4861395;29;20097;-79
2021/07/18 03:07:16;;;;;;;15.18;9.70;;;;;;;23.18;60.12;98503.69;4831055;29;20049;-77
2021/07/18 03:09:42;;;;;;;15.70;10.35;;;;;;;23.29;60.04;98496.69;4861937;29;20050;-78
2021/07/18 03:12:08;;;;;;;18.50;10.90;;;;;;;23.43;59.72;98509.09;4850203;29;20394;-80
2021/07/18 03:14:34;;;;;;;22.13;11.75;;;;;;;23.59;59.18;98503.06;4846748;29;20040;-78
2021/07/18 03:17:00;;;;;;;16.20;10.02;;;;;;;23.72;58.86;98502.91;4862941;29;20060;-78
2021/07/18 03:19:26;;;;;;;16.42;11.05;;;;;;;23.81;58.69;98508.06;4863055;29;20061;-79
2021/07/18 03:21:52;;;;;;;15.15;11.85;;;;;;;23.81;58.65;98505.34;4846466;29;20085;-80
2021/07/18 03:24:18;;;;;;;18.45;12.50;;;;;;;23.89;58.53;98503.16;4861503;29;20552;-79
2021/07/18 03:26:44;;;;;;;18.95;11.68;;;;;;;24.10;57.97;98510.00;4876594;29;20220;-81
2021/07/18 03:29:10;;;;;;;23.10;13.65;;;;;;;24.24;57.39;98516.13;4845664;29;20086;-81
2021/07/18 03:31:36;;;;;;;24.88;14.15;;;;;;;24.30;57.06;98496.09;4815446;29;20132;-81
2021/07/18 03:34:01;;;;;;;23.33;14.13;;;;;;;24.37;56.85;98509.63;4861372;29;20049;-81
2021/07/18 03:36:27;;;;;;;17.52;13.43;;;;;;;24.56;56.63;98510.44;4861094;29;20077;-81
2021/07/18 03:38:53;;;;;;;23.55;13.73;;;;;;;24.74;55.93;98515.00;4830956;29;20049;-83
2021/07/18 03:41:20;;;;;;;36.55;13.57;;;;;;;24.79;55.49;98510.53;4846032;29;20168;-82
2021/07/18 03:43:50;;;;;;;19.15;12.85;;;;;;;24.82;55.40;98504.56;4845830;29;20537;-82
2021/07/18 03:46:15;;;;;;;15.30;11.57;;;;;;;24.72;55.07;98501.59;4845521;29;20092;-80
2021/07/18 03:48:41;;;;;;;13.75;11.30;;;;;;;24.64;54.94;98500.03;4861138;29;20096;-82
2021/07/18 03:51:07;;;;;;;16.58;11.27;;;;;;;24.68;55.60;98505.84;4830619;29;20110;-81
2021/07/18 03:53:33;;;;;;;18.27;11.05;;;;;;;24.76;55.63;98489.13;4845492;29;20449;-80
2021/07/18 03:55:59;;;;;;;15.38;10.15;;;;;;;24.84;55.53;98509.81;4830045;29;20045;-80
2021/07/18 03:58:25;;;;;;;18.13;9.93;;;;;;;24.91;55.34;98508.63;4860708;29;20527;-81
2021/07/18 04:00:51;;;;;;;15.77;9.50;;;;;;;24.93;55.15;98503.75;4845421;29;20434;-82
2021/07/18 04:03:17;;;;;;;12.73;7.68;;;;;;;24.95;55.19;98512.56;4829788;29;20080;-81
2021/07/18 04:05:43;;;;;;;11.60;7.90;;;;;;;24.99;55.11;98517.56;4860494;29;20561;-80
2021/07/18 04:08:08;;;;;;;17.58;8.35;;;;;;;24.99;54.85;98506.63;4830542;29;20073;-80
2021/07/18 04:10:34;;;;;;;14.00;7.50;;;;;;;25.04;55.00;98504.00;4845304;29;20128;-81
2021/07/18 04:13:00;;;;;;;13.50;7.40;;;;;;;25.19;54.65;98510.69;4860231;29;20116;-80
2021/07/18 04:15:27;;;;;;;11.80;7.38;;;;;;;25.39;54.41;98509.53;4860448;29;20130;-82
2021/07/18 04:17:53;;;;;;;10.80;7.13;;;;;;;25.44;53.86;98504.97;4844924;29;20580;-80
2021/07/18 04:20:19;;;;;;;13.00;6.82;;;;;;;25.42;53.38;98507.09;4845493;29;20046;-86
2021/07/18 04:22:45;;;;;;;6.75;5.88;;;;;;;25.56;52.97;98510.44;4847790;29;20072;-81
2021/07/18 04:25:11;;;;;;;9.38;6.13;;;;;;;25.67;52.50;98509.59;4862480;29;20068;-80
2021/07/18 04:27:37;;;;;;;14.52;6.47;;;;;;;25.73;52.03;98502.34;4860765;29;20564;-79
2021/07/18 04:30:07;;;;;;;9.55;7.05;;;;;;;25.83;51.87;98508.03;4830006;29;20128;-78
2021/07/18 04:32:33;;;;;;;9.50;6.57;;;;;;;25.76;52.11;98507.31;4860012;29;20064;-79
2021/07/18 04:34:59;;;;;;;12.27;6.72;;;;;;;25.85;52.00;98508.63;4829851;29;20049;-80
2021/07/18 04:37:25;;;;;;;9.95;6.65;;;;;;;25.91;51.55;98515.91;4860368;29;20601;-77
2021/07/18 04:39:51;;;;;;;11.70;6.95;;;;;;;25.94;51.11;98513.72;4861546;29;20203;-79
2021/07/18 04:42:17;;;;;;;9.48;7.57;;;;;;;25.90;51.71;98529.81;4814391;29;20049;-83
2021/07/18 04:44:42;;;;;;;17.00;7.38;;;;;;;25.90;51.41;98516.94;4844778;29;20061;-81
2021/07/18 04:47:09;;;;;;;9.23;6.72;;;;;;;25.96;51.64;98522.53;4845234;29;20144;-89
2021/07/18 04:49:34;;;;;;;8.73;7.72;;;;;;;26.11;51.48;98525.59;4845264;29;20132;-83
2021/07/18 04:52:00;;;;;;;10.75;7.50;;;;;;;26.08;51.39;98526.91;4861139;29;20110;-84
2021/07/18 04:54:26;;;;;;;8.23;7.25;;;;;;;26.19;51.63;98525.19;4861078;29;20046;-78
2021/07/18 04:56:52;;;;;;;12.70;7.85;;;;;;;26.32;51.25;98527.63;4845161;29;20136;-84
2021/07/18 04:59:19;;;;;;;14.05;8.20;;;;;;;26.40;50.47;98530.00;4829180;29;20145;-77
2021/07/18 05:01:45;;;;;;;15.60;9.02;;;;;;;26.26;50.60;98517.69;4860351;29;20073;-78
2021/07/18 05:04:11;;;;;;;16.55;8.18;;;;;;;26.39;51.30;98511.88;4846150;29;20170;-79
2021/07/18 05:06:37;;;;;;;10.70;8.35;;;;;;;26.72;50.89;98515.81;4814843;29;20399;-79
2021/07/18 05:09:03;;;;;;;13.13;7.90;;;;;;;26.81;50.21;98519.78;4859966;29;20056;-83
2021/07/18 05:11:29;;;;;;;8.10;7.07;;;;;;;26.92;50.53;98518.06;4859451;29;20052;-82
2021/07/18 05:13:55;;;;;;;9.27;7.00;;;;;;;27.08;50.13;98516.38;4860952;29;20497;-79
2021/07/18 05:16:21;;;;;;;13.48;7.38;;;;;;;27.24;50.13;98518.34;4859271;29;20449;-81
2021/07/18 05:18:47;;;;;;;14.38;7.18;;;;;;;27.27;50.17;98519.72;4859544;29;20525;-81
2021/07/18 05:21:13;;;;;;;8.90;7.60;;;;;;;27.45;49.73;98524.13;4844370;29;20053;-79
2021/07/18 05:23:39;;;;;;;9.77;7.03;;;;;;;27.50;49.75;98515.97;4860008;29;20136;-79
2021/07/18 05:26:06;;;;;;;8.93;6.60;;;;;;;27.43;49.26;98526.31;4859089;29;20073;-83
2021/07/18 05:28:32;;;;;;;10.80;6.93;;;;;;;27.18;49.14;98518.50;4828867;29;20598;-87
2021/07/18 05:30:58;;;;;;;7.95;6.95;;;;;;;27.36;49.56;98510.84;4844291;29;20045;-81
2021/07/18 05:33:24;;;;;;;15.82;8.18;;;;;;;27.47;48.60;98511.00;4860141;29;20105;-82
2021/07/18 05:35:52;;;;;;;7.88;7.05;;;;;;;27.60;48.92;98511.44;4829350;29;20568;-81
2021/07/18 05:38:18;;;;;;;9.93;7.30;;;;;;;27.79;48.86;98514.75;4863021;29;20046;-85
2021/07/18 05:40:44;;;;;;;9.77;7.45;;;;;;;28.01;48.50;98514.75;4829142;29;20049;-81
2021/07/18 05:43:10;;;;;;;11.38;8.38;;;;;;;28.14;47.93;98512.72;4860348;29;20053;-81
2021/07/18 05:45:36;;;;;;;13.25;7.47;;;;;;;28.32;47.61;98504.97;4859236;29;20049;-80
2021/07/18 05:48:02;;;;;;;10.95;7.82;;;;;;;28.49;47.48;98504.03;4860179;29;20417;-79
2021/07/18 05:50:29;;;;;;;11.75;8.43;;;;;;;28.45;46.96;98502.91;4844606;29;20402;-80
2021/07/18 05:52:54;;;;;;;12.90;8.40;;;;;;;28.00;47.28;98493.88;4844087;29;20069;-78
2021/07/18 05:55:22;;;;;;;14.27;9.25;;;;;;;27.84;47.11;98495.59;4859052;29;20079;-81
2021/07/18 05:57:48;;;;;;;11.00;9.87;;;;;;;27.89;47.32;98496.75;4842935;29;20097;-80
2021/07/18 06:00:14;;;;;;;17.65;9.75;;;;;;;28.11;47.33;98494.81;4828418;29;20049;-79
2021/07/18 06:02:41;;;;;;;13.73;9.98;;;;;;;28.40;47.30;98498.19;4859888;29;20405;-80
2021/07/18 06:05:07;;;;;;;11.98;10.73;;;;;;;28.72;46.16;98500.13;4844204;29;20041;-80
2021/07/18 06:07:33;;;;;;;14.77;10.93;;;;;;;28.90;45.74;98496.19;4813334;29;20064;-82
2021/07/18 06:10:00;;;;;;;21.90;12.25;;;;;;;28.94;44.58;98502.81;4828963;29;20041;-79
2021/07/18 06:12:26;;;;;;;26.05;16.55;;;;;;;28.96;44.99;98490.47;4858903;29;20144;-79
2021/07/18 06:14:52;;;;;;;20.40;13.02;;;;;;;28.92;44.77;98494.78;4858920;29;20046;-79
2021/07/18 06:17:18;;;;;;;15.55;12.25;;;;;;;29.11;45.15;98487.03;4859963;29;20058;-79
2021/07/18 06:19:44;;;;;;;14.88;12.65;;;;;;;29.35;43.98;98486.63;4843777;29;20053;-80
2021/07/18 06:22:10;;;;;;;16.50;12.15;;;;;;;29.27;43.57;98483.28;4858674;29;20056;-81
2021/07/18 06:24:36;;;;;;;13.95;12.20;;;;;;;29.21;43.85;98476.06;4843533;29;20049;-78
2021/07/18 06:27:02;;;;;;;16.00;12.05;;;;;;;29.34;44.04;98482.19;4797874;29;20060;-79
2021/07/18 06:29:28;;;;;;;17.27;13.02;;;;;;;29.34;43.64;98487.69;4843178;29;20042;-78
2021/07/18 06:31:54;;;;;;;14.52;11.43;;;;;;;29.37;44.11;98482.50;4828849;29;20536;-79
2021/07/18 06:34:20;;;;;;;15.07;12.20;;;;;;;29.65;42.97;98484.06;4826281;29;20389;-79
2021/07/18 06:36:48;;;;;;;16.00;12.32;;;;;;;29.65;42.71;98475.81;4812350;29;20038;-80
2021/07/18 06:39:15;;;;;;;15.63;12.75;;;;;;;29.63;42.93;98479.91;4831126;29;20061;-80
2021/07/18 06:41:41;;;;;;;16.50;12.55;;;;;;;29.52;42.84;98482.56;4861104;29;20599;-78
2021/07/18 06:44:08;;;;;;;16.77;12.40;;;;;;;29.50;43.18;98475.69;4861137;29;20136;-78
2021/07/18 06:46:33;;;;;;;16.85;12.68;;;;;;;29.49;43.46;98480.38;4845969;29;20401;-78
2021/07/18 06:48:59;;;;;;;13.25;11.88;;;;;;;29.63;43.04;98472.47;4845969;29;20054;-77
2021/07/18 06:51:25;;;;;;;11.40;10.15;;;;;;;29.59;41.72;98476.03;4831000;29;20056;-78
2021/07/18 06:53:52;;;;;;;14.65;10.90;;;;;;;29.60;41.99;98478.56;4816034;29;20041;-78
2021/07/18 06:56:17;;;;;;;15.85;11.70;;;;;;;29.71;41.79;98466.50;4862849;29;20057;-78
2021/07/18 06:58:43;;;;;;;11.90;10.68;;;;;;;29.97;42.04;98472.91;4830613;29;20480;-78
2021/07/18 07:01:09;;;;;;;12.50;10.75;;;;;;;30.19;41.27;98464.47;4861506;29;20128;-78
2021/07/18 07:03:35;;;;;;;16.30;10.27;;;;;;;30.26;40.75;98463.38;4831112;29;20517;-78
2021/07/18 07:06:02;;;;;;;11.82;9.38;;;;;;;30.47;39.71;98465.91;4815910;29;20057;-77
2021/07/18 07:08:30;;;;;;;12.15;9.52;;;;;;;30.58;39.61;98458.47;4845954;29;20077;-79
2021/07/18 07:10:56;;;;;;;11.15;9.77;;;;;;;30.85;39.26;98477.53;4830824;29;20113;-79
2021/07/18 07:13:22;;;;;;;13.02;9.98;;;;;;;30.63;39.04;98475.00;4845668;29;20137;-79
2021/07/18 07:15:48;;;;;;;12.80;10.27;;;;;;;30.24;39.83;98467.25;4815592;29;20049;-78
2021/07/18 07:18:14;;;;;;;16.10;9.85;;;;;;;30.08;40.24;98471.00;4815121;29;20140;-79
2021/07/18 07:20:40;;;;;;;16.27;9.30;;;;;;;29.92;40.19;98472.06;4830349;29;20140;-79
2021/07/18 07:23:06;;;;;;;13.48;9.23;;;;;;;29.88;40.15;98470.94;4845593;29;20046;-78
2021/07/18 07:25:32;;;;;;;11.63;9.07;;;;;;;30.10;39.77;98468.81;4861690;29;20521;-78
2021/07/18 07:27:58;;;;;;;12.60;8.98;;;;;;;30.07;40.04;98463.84;4830789;29;20053;-79
2021/07/18 07:30:24;;;;;;;14.00;10.13;;;;;;;30.04;39.70;98461.63;4830546;29;20048;-81
2021/07/18 07:32:50;;;;;;;10.52;9.23;;;;;;;30.03;40.24;98454.47;4845464;29;20497;-79
2021/07/18 07:35:16;;;;;;;7.80;7.10;;;;;;;30.04;37.73;98442.34;4845533;29;20061;-78
2021/07/18 07:37:43;;;;;;;13.07;6.75;;;;;;;30.11;37.62;98450.34;4845393;29;20041;-79
2021/07/18 07:40:13;;;;;;;10.60;7.32;;;;;;;30.65;37.37;98456.25;4830452;29;20074;-78
2021/07/18 07:42:39;;;;;;;14.30;7.38;;;;;;;30.43;37.35;98452.94;4860475;29;20076;-79
2021/07/18 07:45:06;;;;;;;10.65;7.68;;;;;;;30.68;37.75;98455.69;4830229;29;20046;-80
2021/07/18 07:47:32;;;;;;;10.55;7.47;;;;;;;31.12;36.84;98455.16;4831145;29;20052;-79
2021/07/18 07:49:58;;;;;;;9.18;8.27;;;;;;;31.64;36.25;98459.47;4862870;29;20042;-78
2021/07/18 07:52:24;;;;;;;19.48;9.02;;;;;;;31.95;36.39;98456.63;4816641;29;20092;-78
2021/07/18 07:54:50;;;;;;;13.52;8.90;;;;;;;31.79;35.66;98453.06;4860907;29;20517;-77
2021/07/18 07:57:15;;;;;;;12.35;8.70;;;;;;;31.54;36.30;98451.22;4830130;29;20063;-80
2021/07/18 07:59:42;;;;;;;14.68;8.48;;;;;;;31.50;36.38;98455.66;4821022;29;20502;-76
2021/07/18 08:02:08;;;;;;;11.63;7.80;;;;;;;31.25;36.55;98455.69;4858891;29;20045;-76
2021/07/18 08:04:33;;;;;;;10.07;7.10;;;;;;;31.12;35.80;98452.41;4827432;29;20520;-76
2021/07/18 08:06:59;;;;;;;12.40;7.75;;;;;;;31.19;36.54;98444.66;4843416;29;20052;-76
2021/07/18 08:09:25;;;;;;;10.07;6.80;;;;;;;31.72;35.70;98451.72;4844134;29;20148;-76
2021/07/18 08:11:51;;;;;;;7.80;5.88;;;;;;;32.15;33.14;98444.63;4829152;29;20042;-76
2021/07/18 08:14:17;;;;;;;6.03;5.03;;;;;;;32.36;31.20;98439.78;4844456;29;20061;-76
2021/07/18 08:16:43;;;;;;;7.97;4.55;;;;;;;32.70;31.09;98450.09;4859605;29;20049;-76
2021/07/18 08:19:09;;;;;;;7.43;4.70;;;;;;;33.04;30.99;98450.09;4844536;29;20592;-76
2021/07/18 08:21:35;;;;;;;6.60;5.10;;;;;;;33.41;30.86;98443.06;4860123;29;20061;-76
2021/07/18 08:24:01;;;;;;;6.55;5.13;;;;;;;33.35;30.06;98443.13;4859836;29;20073;-77
2021/07/18 08:26:28;;;;;;;8.95;4.70;;;;;;;33.63;29.28;98435.09;4844603;29;20513;-76
2021/07/18 08:28:53;;;;;;;8.90;4.60;;;;;;;34.00;29.35;98442.69;4859772;29;20068;-77
2021/07/18 08:31:20;;;;;;;5.53;4.65;;;;;;;34.03;28.25;98450.38;4844845;29;20128;-76
2021/07/18 08:33:45;;;;;;;6.07;4.90;;;;;;;34.04;27.58;98446.50;4844409;29;20057;-76
2021/07/18 08:36:11;;;;;;;11.10;4.82;;;;;;;33.66;27.78;98444.75;4859616;29;20077;-76
2021/07/18 08:38:37;;;;;;;10.13;4.82;;;;;;;33.33;28.00;98441.78;4828896;29;20520;-76
2021/07/18 08:41:03;;;;;;;7.53;4.60;;;;;;;33.21;28.22;98446.88;4844268;29;20261;-76
2021/07/18 08:43:30;;;;;;;7.32;5.13;;;;;;;33.00;29.02;98449.84;4828021;29;20433;-76
2021/07/18 08:45:57;;;;;;;6.53;5.75;;;;;;;33.32;28.65;98429.03;4829416;29;20046;-80
2021/07/18 08:48:22;;;;;;;11.18;5.38;;;;;;;33.82;28.52;98432.34;4844622;29;20052;-77
2021/07/18 08:50:50;;;;;;;14.73;10.07;;;;;;;34.14;27.76;98439.16;4859435;29;20045;-77
2021/07/18 08:53:16;;;;;;;7.15;5.38;;;;;;;34.34;27.57;98430.56;4860438;29;20119;-77
2021/07/18 08:55:41;;;;;;;8.98;4.38;;;;;;;34.46;27.17;98436.47;4843910;29;20489;-78
2021/07/18 08:58:07;;;;;;;9.82;4.95;;;;;;;34.67;26.97;98439.75;4843747;29;20120;-77
2021/07/18 09:00:34;;;;;;;5.90;4.70;;;;;;;34.69;26.56;98431.13;4860447;29;20404;-77
2021/07/18 09:03:00;;;;;;;9.30;4.18;;;;;;;35.15;25.84;98430.34;4874395;29;20085;-75
2021/07/18 09:05:26;;;;;;;6.90;4.68;;;;;;;35.26;25.38;98427.06;4858935;29;20482;-75
2021/07/18 09:07:54;;;;;;;5.55;3.83;;;;;;;35.20;24.93;98421.91;4829370;29;20057;-76
2021/07/18 09:10:25;;;;;;;6.35;4.30;;;;;;;35.03;25.20;98426.13;4843871;29;20081;-75
2021/07/18 09:13:04;;;;;;;8.57;4.93;;;;;;;35.26;26.07;98420.69;4844415;29;20462;-75
2021/07/18 09:15:48;;;;;;;4.53;4.13;;;;;;;34.67;25.83;98430.59;4829466;29;20052;-76
2021/07/18 09:18:15;;;;;;;7.60;4.85;;;;;;;34.36;27.24;98414.41;4859258;29;20137;-78
2021/07/18 09:20:43;;;;;;;7.85;4.53;;;;;;;34.54;26.77;98415.56;4859343;29;20045;-75
2021/07/18 09:23:28;;;;;;;6.13;4.32;;;;;;;34.78;26.69;98418.19;4874715;29;20438;-75
2021/07/18 09:26:22;;;;;;;6.80;4.35;;;;;;;35.16;26.85;98415.31;4859100;29;20106;-74
2021/07/18 09:28:49;;;;;;;8.40;4.70;;;;;;;35.46;26.31;98419.47;4843644;29;20049;-80
2021/07/18 09:31:31;;;;;;;6.35;5.32;;;;;;;35.54;26.36;98410.44;4828799;29;20132;-78
2021/07/18 09:34:20;;;;;;;5.75;5.15;;;;;;;35.50;26.55;98421.34;4857453;29;20470;-75
2021/07/18 09:36:47;;;;;;;7.75;5.53;;;;;;;35.46;26.57;98422.25;4832734;29;20053;-73
2021/07/18 09:39:14;;;;;;;9.20;6.20;;;;;;;35.38;26.61;98429.34;4859588;29;20497;-73
2021/07/18 09:41:46;;;;;;;7.38;5.57;;;;;;;35.10;27.09;98402.69;4828004;29;20097;-74
2021/07/18 09:44:12;;;;;;;14.15;7.50;;;;;;;35.39;26.69;98413.50;4859690;29;20135;-73
2021/07/18 09:46:38;;;;;;;9.65;5.75;;;;;;;35.62;26.22;98414.44;4858650;29;20124;-74
2021/07/18 09:49:04;;;;;;;8.95;5.75;;;;;;;35.63;26.40;98419.72;4858527;29;20057;-75
2021/07/18 09:51:36;;;;;;;10.38;5.18;;;;;;;36.17;25.82;98400.47;4857531;29;20046;-74
2021/07/18 09:54:11;;;;;;;6.93;5.43;;;;;;;36.74;25.45;98411.91;4859023;29;20053;-76
2021/07/18 09:56:37;;;;;;;16.90;8.63;;;;;;;37.04;25.19;98401.97;4828179;29;20061;-74
2021/07/18 09:59:03;;;;;;;10.43;5.60;;;;;;;37.30;24.87;98415.22;4859046;29;20069;-75
2021/07/18 10:01:29;;;;;;;7.78;5.38;;;;;;;37.41;24.05;98406.25;4859096;29;20389;-74
2021/07/18 10:03:55;;;;;;;11.07;5.47;;;;;;;37.09;24.84;98403.81;4857972;29;20079;-75
2021/07/18 10:06:26;;;;;;;9.57;5.13;;;;;;;37.40;23.90;98396.25;4827020;29;20083;-75
2021/07/18 10:08:53;;;;;;;11.10;5.20;;;;;;;37.42;23.96;98415.44;4827841;29;20049;-74
2021/07/18 10:11:21;;;;;;;9.02;5.18;;;;;;;37.36;23.95;98398.03;4846092;29;20093;-76
2021/07/18 10:13:48;;;;;;;6.45;4.70;;;;;;;37.82;23.63;98405.06;4846569;29;20084;-75
2021/07/18 10:16:14;;;;;;;11.95;4.85;;;;;;;38.15;22.92;98404.66;4846645;29;20049;-75
2021/07/18 10:18:41;;;;;;;6.05;5.18;;;;;;;38.30;22.80;98397.78;4862984;29;20057;-74
2021/07/18 10:21:08;;;;;;;9.88;5.05;;;;;;;38.15;23.01;98394.31;4815087;29;20045;-75
2021/07/18 10:23:34;;;;;;;7.93;5.13;;;;;;;37.59;23.10;98390.44;4831175;29;20607;-75
2021/07/18 10:26:00;;;;;;;13.60;5.55;;;;;;;37.55;23.78;98395.00;4861670;29;20057;-76
2021/07/18 10:28:26;;;;;;;6.75;5.20;;;;;;;37.56;23.55;98382.69;4831046;29;20171;-75
2021/07/18 10:31:17;;;;;;;7.65;4.97;;;;;;;37.71;22.98;98398.16;4861606;29;20045;-76
2021/07/18 10:33:43;;;;;;;9.20;4.97;;;;;;;37.88;23.03;98403.81;4861624;29;20052;-75
2021/07/18 10:36:09;;;;;;;10.60;5.25;;;;;;;38.55;22.63;98393.34;4845907;29;20167;-75
2021/07/18 10:38:35;;;;;;;7.20;5.10;;;;;;;39.07;21.87;98382.09;4846376;29;20045;-76
2021/07/18 10:41:01;;;;;;;8.50;4.38;;;;;;;39.43;20.58;98384.44;4846076;29;20181;-78
2021/07/18 10:43:39;;;;;;;6.82;4.20;;;;;;;39.36;20.59;98377.75;4846129;29;20037;-77
2021/07/18 10:46:08;;;;;;;7.85;4.65;;;;;;;39.98;20.57;98371.44;4846164;29;20429;-74
2021/07/18 10:48:52;;;;;;;6.25;4.20;;;;;;;39.83;20.41;98372.88;4862753;29;20053;-75
2021/07/18 10:51:34;;;;;;;6.45;4.20;;;;;;;40.59;20.07;98374.63;4846347;29;20049;-75
2021/07/18 10:54:09;;;;;;;10.90;4.25;;;;;;;40.47;19.14;98377.31;4861183;29;20362;-75
2021/07/18 10:56:44;;;;;;;7.88;4.68;;;;;;;40.74;19.36;98365.56;4861436;29;20128;-76
2021/07/18 10:59:33;;;;;;;8.65;4.28;;;;;;;40.65;19.43;98378.00;4831121;29;20076;-74
2021/07/18 11:02:09;;;;;;;7.28;4.32;;;;;;;40.30;19.94;98367.13;4861656;29;20132;-75
2021/07/18 11:04:48;;;;;;;7.13;4.25;;;;;;;41.15;19.64;98369.41;4845937;29;20045;-74
2021/07/18 11:07:20;;;;;;;9.18;4.65;;;;;;;40.45;19.69;98374.06;4860589;29;20053;-74
2021/07/18 11:09:50;;;;;;;9.60;4.07;;;;;;;40.42;20.48;98374.75;4830162;29;20148;-74
2021/07/18 11:12:28;;;;;;;9.95;4.43;;;;;;;40.65;20.63;98373.22;4845947;29;20134;-75
2021/07/18 11:15:20;;;;;;;6.13;5.18;;;;;;;41.56;19.75;98367.56;4845795;29;20049;-74
2021/07/18 11:18:03;;;;;;;7.15;4.30;;;;;;;41.70;18.95;98373.63;4860868;29;20060;-75
2021/07/18 11:20:43;;;;;;;4.90;4.00;;;;;;;41.79;18.25;98369.88;4830023;29;20119;-75
2021/07/18 11:23:10;;;;;;;8.73;4.20;;;;;;;41.85;17.68;98369.31;4830006;29;20121;-75
2021/07/18 11:25:43;;;;;;;6.38;4.05;;;;;;;41.48;18.85;98365.69;4845292;29;20156;-74
2021/07/18 11:28:28;;;;;;;4.68;4.28;;;;;;;40.53;18.83;98353.56;4845585;29;20509;-76